KPNS/PNS METAR and TAF weather

Enter ICAO airport designator
Station Type Date Time Source
KPNS METAR 2020/01/23 08:53 UTC NOAA

KPNS 230853Z AUTO 06005KT 10SM OVC042 10/M01 A3013 RMK AO2 SLP205 T01001011 58005


Station Type Date Time Source
KPNS Decoded METAR 2020/01/23 08:53 UTC NOAA

PENSACOLA REGIONAL AIRPORT, FL, United States (KPNS) 30-29N 087-11W 38M
Jan 23, 2020 - 03:53 AM EST / 2020.01.23 0853 UTC
Wind: from the ENE (060 degrees) at 6 MPH (5 KT):0
Visibility: 10 mile(s):0
Sky conditions: overcast
Temperature: 50.0 F (10.0 C)
Dew Point: 30.0 F (-1.1 C)
Relative Humidity: 45%
Pressure (altimeter): 30.13 in. Hg (1020 hPa)
Pressure tendency: 0.01 inches (0.5 hPa) lower than three hours ago
ob: KPNS 230853Z AUTO 06005KT 10SM OVC042 10/M01 A3013 RMK AO2 SLP205 T01001011 58005
cycle: 9

Station Type Date Time Source
KPNS TAF 2020/01/23 06:48 UTC NOAA

TAF KPNS 230545Z 2306/2406 08008KT P6SM OVC100
FM231700 10014KT P6SM OVC045 PROB30 2317/2323 4SM SHRA OVC025
FM232300 11011KT 4SM SHRA OVC016
FM240500 12011G19KT 3SM SHRA OVC008

Example: see airport list